Time;durP1;ratioP1;P1;durP2;ratioP2;P2;SDS_P1;SDS_P2;PMS_P1;PMS_P2;Temp;Humidity;BMP_temperature;BMP_pressure;BME280_temperature;BME280_humidity;BME280_pressure;Samples;Min_cycle;Max_cycle;Signal;HPM_P1;HPM_P2
2024/01/29 00:00:16;;;;;;;17.60;12.80;;;8.80;60.70;;;;;;4934940;29;20205;-90
2024/01/29 00:02:44;;;;;;;16.70;11.17;;;8.80;60.70;;;;;;4951344;28;20252;-90
2024/01/29 00:05:09;;;;;;;20.03;13.10;;;8.80;60.80;;;;;;4936600;29;20644;-90
2024/01/29 00:07:35;;;;;;;21.43;13.30;;;8.80;60.60;;;;;;4935002;29;20212;-90
2024/01/29 00:10:00;;;;;;;19.13;12.30;;;8.80;60.70;;;;;;4938088;29;20193;-90
2024/01/29 00:12:26;;;;;;;16.80;12.20;;;8.80;60.70;;;;;;4940872;29;20189;-90
2024/01/29 00:14:52;;;;;;;22.43;14.20;;;8.80;60.30;;;;;;4936121;29;20194;-90
2024/01/29 00:17:18;;;;;;;19.97;13.13;;;8.70;60.00;;;;;;4935858;29;20224;-91
2024/01/29 00:19:43;;;;;;;17.90;13.10;;;8.70;60.20;;;;;;4935303;29;20268;-90
2024/01/29 00:22:09;;;;;;;20.87;13.07;;;8.60;60.10;;;;;;4953211;28;20530;-90
2024/01/29 00:24:34;;;;;;;20.63;13.63;;;8.70;60.30;;;;;;4936998;29;20216;-89
2024/01/29 00:27:00;;;;;;;19.40;13.43;;;8.70;60.30;;;;;;4935365;29;20192;-90
2024/01/29 00:29:25;;;;;;;19.03;13.00;;;8.50;60.30;;;;;;4936831;29;20619;-90
2024/01/29 00:31:51;;;;;;;19.53;13.00;;;8.60;60.60;;;;;;4932609;29;20187;-90
2024/01/29 00:34:17;;;;;;;17.60;12.30;;;8.50;60.20;;;;;;4935763;29;20240;-89
2024/01/29 00:36:42;;;;;;;19.57;13.53;;;8.50;60.20;;;;;;4936702;29;20200;-90
2024/01/29 00:39:09;;;;;;;22.10;13.00;;;8.50;60.40;;;;;;4937133;28;20221;-90
2024/01/29 00:41:37;;;;;;;18.17;12.80;;;8.50;60.70;;;;;;4932603;29;20215;-90
2024/01/29 00:44:03;;;;;;;19.93;12.97;;;8.50;60.70;;;;;;4936497;29;20199;-90
2024/01/29 00:46:29;;;;;;;18.83;13.10;;;8.50;60.60;;;;;;4935348;29;20185;-89
2024/01/29 00:48:55;;;;;;;23.60;14.20;;;8.50;60.50;;;;;;4936911;29;20180;-89
2024/01/29 00:51:20;;;;;;;21.47;14.03;;;8.50;60.40;;;;;;4936926;29;20277;-89
2024/01/29 00:53:47;;;;;;;21.63;14.50;;;8.50;60.50;;;;;;4935472;28;20182;-89
2024/01/29 00:56:12;;;;;;;21.37;13.90;;;8.60;60.70;;;;;;4936436;29;20233;-90
2024/01/29 00:58:43;;;;;;;19.93;13.57;;;8.50;60.40;;;;;;4933677;29;20602;-89
2024/01/29 01:01:09;;;;;;;19.87;13.90;;;8.50;60.20;;;;;;4936846;29;20214;-90
2024/01/29 01:03:35;;;;;;;19.87;14.07;;;8.50;60.30;;;;;;4936877;29;20203;-90
2024/01/29 01:06:00;;;;;;;16.40;12.97;;;8.40;60.00;;;;;;4935985;28;20189;-90
2024/01/29 01:08:26;;;;;;;23.23;13.90;;;8.40;60.40;;;;;;4936205;29;20247;-90
2024/01/29 01:10:52;;;;;;;19.93;13.90;;;8.40;60.60;;;;;;4935415;29;20267;-89
2024/01/29 01:13:17;;;;;;;20.40;13.73;;;8.40;60.30;;;;;;4935790;28;20254;-88
2024/01/29 01:15:43;;;;;;;21.10;13.97;;;8.40;60.40;;;;;;4935135;28;20185;-90
2024/01/29 01:18:08;;;;;;;18.60;12.90;;;8.50;60.60;;;;;;4933953;29;20742;-90
2024/01/29 01:20:34;;;;;;;19.20;13.60;;;8.40;60.30;;;;;;4934167;29;20356;-90
2024/01/29 01:23:01;;;;;;;20.13;13.47;;;8.40;60.30;;;;;;4932580;29;20193;-90
2024/01/29 01:25:27;;;;;;;16.50;12.37;;;8.40;60.20;;;;;;4935052;28;20325;-90
2024/01/29 01:27:53;;;;;;;18.50;12.63;;;8.40;60.40;;;;;;4936264;29;20245;-90
2024/01/29 01:30:21;;;;;;;18.20;12.87;;;8.40;60.10;;;;;;4935687;29;20193;-90
2024/01/29 01:32:46;;;;;;;18.40;12.27;;;8.30;59.90;;;;;;4935275;29;20193;-90
2024/01/29 01:35:12;;;;;;;15.13;11.37;;;8.30;59.90;;;;;;4933722;29;20265;-90
2024/01/29 01:37:38;;;;;;;17.67;12.33;;;8.30;59.90;;;;;;4933487;29;20279;-90
2024/01/29 01:40:04;;;;;;;18.23;12.77;;;8.30;60.10;;;;;;4936683;29;20205;-90
2024/01/29 01:42:30;;;;;;;16.70;12.47;;;8.20;59.80;;;;;;4933984;29;20189;-90
2024/01/29 01:44:56;;;;;;;15.67;11.97;;;8.30;59.80;;;;;;4929350;29;20257;-89
2024/01/29 01:47:22;;;;;;;16.77;11.37;;;8.20;59.90;;;;;;4932277;29;20279;-90
2024/01/29 01:49:48;;;;;;;15.87;11.73;;;8.20;60.00;;;;;;4933486;29;20200;-89
2024/01/29 01:52:17;;;;;;;15.80;11.87;;;8.30;60.20;;;;;;4935725;29;20546;-90
2024/01/29 01:54:44;;;;;;;17.37;11.90;;;8.20;60.00;;;;;;4931048;29;20214;-89
2024/01/29 01:57:10;;;;;;;17.67;12.43;;;8.20;60.00;;;;;;4932536;29;20204;-90
2024/01/29 01:59:39;;;;;;;15.40;11.97;;;8.10;60.00;;;;;;4935196;29;20642;-90
2024/01/29 02:02:05;;;;;;;17.37;11.13;;;8.10;59.90;;;;;;4935260;29;20672;-90
2024/01/29 02:04:30;;;;;;;15.57;12.27;;;8.10;59.90;;;;;;4934535;29;20185;-89
2024/01/29 02:06:57;;;;;;;18.07;11.90;;;8.10;59.90;;;;;;4934927;29;20662;-89
2024/01/29 02:09:23;;;;;;;16.97;12.03;;;8.10;59.90;;;;;;4935350;29;20220;-91
2024/01/29 02:11:49;;;;;;;17.40;12.10;;;8.10;59.90;;;;;;4934503;28;20231;-90
2024/01/29 02:14:15;;;;;;;18.37;12.90;;;8.10;60.00;;;;;;4935301;29;20276;-89
2024/01/29 02:16:40;;;;;;;18.93;12.87;;;8.00;59.80;;;;;;4933311;29;20331;-89
2024/01/29 02:19:16;;;;;;;16.63;12.70;;;8.00;59.70;;;;;;4935895;29;20185;-90
2024/01/29 02:21:42;;;;;;;16.93;13.07;;;8.00;59.60;;;;;;4931994;29;20254;-91
2024/01/29 02:24:08;;;;;;;16.13;12.60;;;7.90;59.50;;;;;;4950456;28;20683;-89
2024/01/29 02:26:33;;;;;;;17.60;13.13;;;7.90;59.60;;;;;;4936820;29;20239;-89
2024/01/29 02:28:59;;;;;;;17.73;13.50;;;7.90;59.70;;;;;;4934498;29;20184;-90
2024/01/29 02:31:25;;;;;;;17.43;12.63;;;7.90;59.80;;;;;;4934676;29;20184;-90
2024/01/29 02:33:50;;;;;;;16.57;12.90;;;7.90;59.80;;;;;;4935146;28;20185;-90
2024/01/29 02:36:16;;;;;;;20.77;13.77;;;7.90;59.50;;;;;;4934962;29;20635;-90
2024/01/29 02:38:42;;;;;;;18.70;14.57;;;7.80;59.30;;;;;;4936771;29;20185;-89
2024/01/29 02:41:08;;;;;;;20.37;15.03;;;7.80;59.30;;;;;;4939038;29;20243;-89
2024/01/29 02:43:34;;;;;;;20.20;14.43;;;7.80;59.30;;;;;;4937101;29;20185;-90
2024/01/29 02:46:00;;;;;;;17.70;13.30;;;7.70;59.30;;;;;;4955801;28;20661;-90
2024/01/29 02:48:25;;;;;;;21.40;13.97;;;7.70;59.30;;;;;;4941026;28;20549;-89
2024/01/29 02:50:51;;;;;;;17.90;13.97;;;7.50;59.20;;;;;;4937064;29;20280;-90
2024/01/29 02:53:17;;;;;;;20.37;14.00;;;7.50;59.10;;;;;;4939030;28;20182;-90
2024/01/29 02:55:42;;;;;;;20.77;14.30;;;7.40;59.10;;;;;;4944049;28;20192;-89
2024/01/29 02:58:08;;;;;;;18.27;14.67;;;7.40;59.00;;;;;;4950126;28;20176;-89
2024/01/29 03:00:33;;;;;;;18.73;13.10;;;7.30;59.00;;;;;;4941824;29;20201;-90
2024/01/29 03:02:59;;;;;;;16.57;13.53;;;7.20;59.00;;;;;;4958537;28;20189;-89
2024/01/29 03:05:25;;;;;;;18.57;13.90;;;7.10;58.90;;;;;;4951620;28;20186;-90
2024/01/29 03:07:51;;;;;;;21.17;14.73;;;7.20;59.10;;;;;;4953068;28;20196;-89
2024/01/29 03:10:17;;;;;;;18.67;14.73;;;7.10;59.10;;;;;;4956893;28;20176;-89
2024/01/29 03:12:42;;;;;;;19.83;14.70;;;7.20;59.50;;;;;;4951559;28;20646;-89
2024/01/29 03:15:08;;;;;;;20.13;14.90;;;7.10;59.50;;;;;;4959092;28;20193;-89
2024/01/29 03:17:34;;;;;;;22.87;15.03;;;7.10;59.50;;;;;;4935747;29;20692;-90
2024/01/29 03:19:59;;;;;;;21.53;15.47;;;7.20;59.60;;;;;;4938752;29;20219;-89
2024/01/29 03:22:25;;;;;;;19.93;15.43;;;7.20;59.70;;;;;;4941055;29;20303;-90
2024/01/29 03:24:51;;;;;;;19.20;14.17;;;7.10;59.60;;;;;;4939769;29;20185;-89
2024/01/29 03:27:16;;;;;;;21.20;14.60;;;7.20;59.60;;;;;;4939702;28;20200;-90
2024/01/29 03:29:42;;;;;;;20.80;14.67;;;7.10;59.60;;;;;;4932895;29;20209;-90
2024/01/29 03:32:09;;;;;;;20.30;14.20;;;7.20;59.50;;;;;;4938737;29;20670;-89
2024/01/29 03:34:34;;;;;;;18.60;15.20;;;7.10;59.80;;;;;;4940679;28;20181;-90
2024/01/29 03:37:00;;;;;;;19.23;14.87;;;7.20;59.80;;;;;;4938884;28;20610;-90
2024/01/29 03:39:25;;;;;;;21.70;15.03;;;7.20;59.60;;;;;;4956945;29;20188;-89
2024/01/29 03:41:51;;;;;;;20.37;14.53;;;7.20;59.60;;;;;;4939936;29;20212;-89
2024/01/29 03:44:17;;;;;;;19.33;14.93;;;7.20;59.70;;;;;;4940314;29;20193;-89
2024/01/29 03:46:42;;;;;;;20.83;15.13;;;7.20;59.70;;;;;;4939238;29;20199;-90
2024/01/29 03:49:08;;;;;;;21.70;15.33;;;7.20;59.60;;;;;;4939750;29;20188;-89
2024/01/29 03:51:34;;;;;;;17.50;14.13;;;7.30;59.50;;;;;;4937514;29;20185;-90
2024/01/29 03:53:59;;;;;;;20.07;15.03;;;7.20;59.50;;;;;;4942087;29;20240;-88
2024/01/29 03:56:25;;;;;;;22.50;15.30;;;7.20;59.60;;;;;;4935023;29;20667;-89
2024/01/29 03:58:51;;;;;;;20.30;15.47;;;7.20;59.40;;;;;;4938061;29;20192;-89
2024/01/29 04:01:26;;;;;;;19.73;15.10;;;7.10;59.30;;;;;;4940083;29;20215;-89
2024/01/29 04:03:52;;;;;;;19.03;15.00;;;7.10;59.40;;;;;;4937522;29;20192;-89
2024/01/29 04:06:17;;;;;;;21.03;15.90;;;7.10;59.60;;;;;;4952446;28;20189;-90
2024/01/29 04:08:43;;;;;;;20.33;15.43;;;7.10;59.40;;;;;;4937265;29;20644;-89
2024/01/29 04:11:08;;;;;;;20.47;15.77;;;7.10;59.30;;;;;;4938387;29;20201;-89
2024/01/29 04:13:34;;;;;;;21.63;14.97;;;7.00;59.20;;;;;;4939565;29;20173;-89
2024/01/29 04:16:00;;;;;;;19.17;14.70;;;7.00;59.20;;;;;;4937341;28;20241;-91
2024/01/29 04:18:26;;;;;;;18.47;14.77;;;7.00;59.20;;;;;;4936884;28;20224;-89
2024/01/29 04:20:52;;;;;;;20.73;14.87;;;6.90;59.20;;;;;;4936585;29;20299;-90
2024/01/29 04:23:18;;;;;;;24.50;15.73;;;6.90;59.20;;;;;;4934821;29;20227;-90
2024/01/29 04:25:44;;;;;;;18.47;13.87;;;6.90;59.10;;;;;;4938263;29;20229;-90
2024/01/29 04:28:10;;;;;;;19.43;14.27;;;6.90;59.20;;;;;;4939044;28;20173;-90
2024/01/29 04:30:35;;;;;;;19.93;15.10;;;6.80;59.30;;;;;;4933369;29;20185;-90
2024/01/29 04:33:01;;;;;;;20.17;14.10;;;6.90;59.30;;;;;;4936965;29;20189;-89
2024/01/29 04:35:27;;;;;;;21.27;15.10;;;6.80;59.20;;;;;;4935407;29;20256;-90
2024/01/29 04:37:52;;;;;;;18.80;13.87;;;6.80;59.30;;;;;;4935623;29;20178;-89
2024/01/29 04:40:18;;;;;;;22.00;15.30;;;6.90;59.40;;;;;;4936381;29;20201;-89
2024/01/29 04:42:43;;;;;;;18.20;14.60;;;6.80;59.30;;;;;;4938909;28;20184;-88
2024/01/29 04:45:09;;;;;;;16.53;13.70;;;6.80;59.30;;;;;;4936254;28;20181;-90
2024/01/29 04:47:35;;;;;;;19.20;14.43;;;6.80;59.50;;;;;;4942165;29;20177;-89
2024/01/29 04:50:00;;;;;;;17.10;13.23;;;7.00;59.60;;;;;;4932286;29;20542;-89
2024/01/29 04:52:26;;;;;;;18.00;14.20;;;7.00;59.50;;;;;;4939190;29;20177;-88
2024/01/29 04:54:52;;;;;;;18.27;14.73;;;6.90;59.40;;;;;;4934833;29;20196;-89
2024/01/29 04:57:20;;;;;;;15.13;12.80;;;6.90;59.30;;;;;;4936754;29;20173;-89
2024/01/29 04:59:46;;;;;;;17.53;12.97;;;6.90;59.40;;;;;;4939353;28;20242;-86
2024/01/29 05:02:11;;;;;;;16.57;13.70;;;6.90;59.40;;;;;;4940130;29;20221;-86
2024/01/29 05:04:37;;;;;;;18.73;13.93;;;6.90;59.40;;;;;;4955116;28;20177;-86
2024/01/29 05:07:03;;;;;;;14.70;12.40;;;6.90;59.40;;;;;;4934872;29;20188;-86
2024/01/29 05:09:28;;;;;;;16.93;12.47;;;7.00;59.50;;;;;;4953338;28;20199;-87
2024/01/29 05:11:54;;;;;;;16.87;13.17;;;7.00;59.40;;;;;;4934425;29;20192;-86
2024/01/29 05:14:19;;;;;;;17.67;12.70;;;7.10;59.50;;;;;;4934909;29;20188;-88
2024/01/29 05:16:45;;;;;;;16.50;12.60;;;7.10;59.40;;;;;;4936557;29;20232;-88
2024/01/29 05:19:11;;;;;;;18.07;12.83;;;7.10;59.40;;;;;;4936463;29;20272;-88
2024/01/29 05:21:36;;;;;;;17.03;12.20;;;7.20;59.50;;;;;;4935522;29;20916;-88
2024/01/29 05:24:02;;;;;;;15.37;12.40;;;7.10;59.30;;;;;;4931136;29;20193;-87
2024/01/29 05:26:28;;;;;;;15.53;12.50;;;7.10;59.40;;;;;;4932187;29;20190;-88
2024/01/29 05:28:53;;;;;;;13.80;11.80;;;7.10;59.30;;;;;;4950860;28;20192;-86
2024/01/29 05:31:19;;;;;;;15.57;12.03;;;7.10;59.20;;;;;;4952603;28;20196;-85
2024/01/29 05:33:44;;;;;;;16.30;11.90;;;7.10;59.40;;;;;;4934692;29;20182;-87
2024/01/29 05:36:10;;;;;;;15.17;12.00;;;7.20;59.50;;;;;;4947983;29;20272;-88
2024/01/29 05:38:36;;;;;;;15.20;11.70;;;7.20;59.60;;;;;;4931875;29;20185;-87
2024/01/29 05:41:01;;;;;;;15.00;11.27;;;7.20;59.60;;;;;;4933389;29;20676;-88
2024/01/29 05:43:27;;;;;;;17.60;11.87;;;7.30;59.70;;;;;;4934990;29;20699;-88
2024/01/29 05:45:52;;;;;;;16.13;11.63;;;7.30;59.60;;;;;;4932456;29;20543;-87
2024/01/29 05:48:19;;;;;;;15.70;12.17;;;7.50;59.70;;;;;;4950587;28;20189;-88
2024/01/29 05:50:44;;;;;;;25.70;12.03;;;7.40;59.60;;;;;;4932490;29;20675;-88
2024/01/29 05:53:10;;;;;;;16.30;12.60;;;7.30;60.10;;;;;;4933520;28;20216;-88
2024/01/29 05:55:36;;;;;;;19.03;13.17;;;7.40;59.40;;;;;;4951110;28;20192;-88
2024/01/29 05:58:02;;;;;;;27.27;15.47;;;7.40;59.30;;;;;;4931003;28;20256;-86
2024/01/29 06:00:28;;;;;;;19.93;13.23;;;7.30;59.30;;;;;;4933799;28;20223;-85
2024/01/29 06:02:54;;;;;;;16.53;13.57;;;7.40;59.50;;;;;;4956098;28;20197;-85
2024/01/29 06:05:22;;;;;;;18.27;12.70;;;7.50;59.60;;;;;;4936020;28;20541;-85
2024/01/29 06:07:48;;;;;;;15.97;13.13;;;7.40;59.30;;;;;;4943235;28;20189;-85
2024/01/29 06:10:14;;;;;;;12.60;11.03;;;7.50;59.40;;;;;;4957448;28;20197;-84
2024/01/29 06:12:40;;;;;;;13.73;11.03;;;7.50;59.30;;;;;;4935871;28;20546;-85
2024/01/29 06:15:06;;;;;;;15.33;12.27;;;7.50;59.10;;;;;;4929379;28;20196;-84
2024/01/29 06:17:32;;;;;;;15.07;12.20;;;7.50;59.10;;;;;;4929186;29;20320;-84
2024/01/29 06:19:57;;;;;;;13.60;11.70;;;7.60;59.10;;;;;;4930512;29;20264;-84
2024/01/29 06:22:23;;;;;;;15.83;12.07;;;7.70;58.80;;;;;;4933220;29;20635;-84
2024/01/29 06:24:49;;;;;;;16.13;11.40;;;7.60;58.60;;;;;;4928644;29;20212;-84
2024/01/29 06:27:15;;;;;;;14.97;11.40;;;7.60;58.40;;;;;;4929308;29;20656;-86
2024/01/29 06:29:40;;;;;;;14.73;11.87;;;7.60;58.60;;;;;;4931888;29;20220;-84
2024/01/29 06:32:06;;;;;;;15.30;11.43;;;7.60;58.50;;;;;;4931897;28;20265;-87
2024/01/29 06:34:33;;;;;;;15.37;11.67;;;7.60;58.10;;;;;;4949903;29;20518;-86
2024/01/29 06:36:59;;;;;;;14.97;11.30;;;7.60;58.10;;;;;;4930543;29;20561;-85
2024/01/29 06:39:25;;;;;;;14.80;11.90;;;7.60;58.10;;;;;;4948599;29;20500;-86
2024/01/29 06:41:50;;;;;;;15.47;11.40;;;7.50;57.90;;;;;;4931310;29;20499;-86
2024/01/29 06:44:16;;;;;;;12.97;10.67;;;7.60;58.00;;;;;;4931493;29;20196;-85
2024/01/29 06:46:41;;;;;;;14.23;10.90;;;7.60;58.00;;;;;;4933815;29;20220;-85
2024/01/29 06:49:07;;;;;;;12.57;9.67;;;7.60;57.90;;;;;;4931426;29;20192;-88
2024/01/29 06:51:33;;;;;;;13.93;9.80;;;7.60;57.60;;;;;;4932668;29;20189;-87
2024/01/29 06:54:00;;;;;;;12.73;10.00;;;7.70;57.30;;;;;;4932666;29;20189;-87
2024/01/29 06:56:27;;;;;;;11.47;9.23;;;7.50;57.30;;;;;;4949101;29;20193;-89
2024/01/29 06:58:53;;;;;;;11.87;9.20;;;7.50;57.30;;;;;;4933824;29;20177;-90
2024/01/29 07:01:22;;;;;;;12.63;9.23;;;7.60;57.50;;;;;;4929626;29;20268;-90
2024/01/29 07:03:48;;;;;;;12.17;9.37;;;7.50;57.40;;;;;;4931422;29;20545;-88
2024/01/29 07:06:13;;;;;;;13.17;9.03;;;7.60;57.20;;;;;;4949688;29;20255;-90
2024/01/29 07:08:39;;;;;;;12.07;9.40;;;7.50;56.80;;;;;;4932247;29;20724;-89
2024/01/29 07:11:05;;;;;;;12.33;9.20;;;7.40;56.70;;;;;;4950053;28;20190;-89
2024/01/29 07:13:31;;;;;;;9.77;7.93;;;7.40;56.80;;;;;;4933851;29;20197;-89
2024/01/29 07:15:59;;;;;;;10.17;7.67;;;7.50;57.00;;;;;;4931439;28;21643;-94
2024/01/29 07:18:24;;;;;;;10.10;8.17;;;7.30;56.60;;;;;;4932714;28;20548;-90
2024/01/29 07:20:50;;;;;;;8.57;7.30;;;7.40;56.90;;;;;;4932346;29;20210;-90
2024/01/29 07:23:16;;;;;;;8.33;6.63;;;7.40;57.10;;;;;;4931019;29;20245;-93
2024/01/29 07:25:42;;;;;;;8.90;7.10;;;7.40;56.70;;;;;;4937477;29;20252;-92
2024/01/29 07:28:08;;;;;;;9.33;7.00;;;7.40;56.90;;;;;;4933923;29;20220;-89
2024/01/29 07:30:34;;;;;;;9.23;6.70;;;7.40;57.40;;;;;;4936910;29;20189;-91
2024/01/29 07:33:00;;;;;;;9.30;7.63;;;7.60;57.10;;;;;;4934061;29;20641;-90
2024/01/29 07:35:26;;;;;;;7.97;7.17;;;7.60;57.20;;;;;;4936996;28;20193;-90
2024/01/29 07:37:52;;;;;;;10.20;7.00;;;7.50;56.70;;;;;;4953018;28;20189;-90
2024/01/29 07:40:21;;;;;;;9.43;6.90;;;7.60;56.80;;;;;;4935003;29;20212;-90
2024/01/29 07:42:47;;;;;;;8.93;6.67;;;7.50;56.80;;;;;;4936102;29;20711;-88
2024/01/29 07:45:13;;;;;;;8.87;6.77;;;7.60;57.00;;;;;;4935125;28;20189;-90
2024/01/29 07:47:39;;;;;;;7.20;6.43;;;7.60;56.90;;;;;;4935042;29;20193;-92
2024/01/29 07:50:05;;;;;;;8.83;7.07;;;7.60;56.70;;;;;;4936098;28;20554;-89
2024/01/29 07:52:31;;;;;;;8.93;7.30;;;7.60;56.80;;;;;;4934806;29;20201;-89
2024/01/29 07:54:56;;;;;;;8.27;6.93;;;7.70;56.70;;;;;;4932266;28;20190;-91
2024/01/29 07:57:22;;;;;;;10.70;8.10;;;7.60;56.60;;;;;;4933870;29;20719;-90
2024/01/29 07:59:47;;;;;;;8.53;7.60;;;7.60;56.70;;;;;;4936251;29;20201;-90
2024/01/29 08:02:13;;;;;;;8.40;6.57;;;7.70;56.80;;;;;;4936815;29;20200;-90
2024/01/29 08:04:39;;;;;;;8.63;6.80;;;7.70;56.50;;;;;;4936863;29;20663;-88
2024/01/29 08:07:04;;;;;;;8.77;7.43;;;7.60;56.80;;;;;;4934541;28;20666;-88
2024/01/29 08:09:30;;;;;;;9.47;8.37;;;7.70;56.70;;;;;;4936111;29;20666;-93
2024/01/29 08:11:56;;;;;;;11.07;8.60;;;7.70;56.70;;;;;;4935458;28;20197;-89
2024/01/29 08:14:22;;;;;;;8.17;7.30;;;7.90;56.90;;;;;;4933420;29;20181;-89
2024/01/29 08:16:48;;;;;;;7.03;6.33;;;7.80;56.80;;;;;;4951477;29;20227;-89
2024/01/29 08:19:13;;;;;;;9.27;6.80;;;8.00;56.80;;;;;;4933741;29;20272;-90
2024/01/29 08:21:39;;;;;;;8.33;6.97;;;7.80;56.30;;;;;;4932402;29;20268;-91
2024/01/29 08:24:05;;;;;;;7.47;6.13;;;7.80;56.40;;;;;;4933964;29;20533;-89
2024/01/29 08:26:31;;;;;;;8.97;6.80;;;7.90;56.50;;;;;;4935515;28;20204;-90
2024/01/29 08:28:57;;;;;;;6.73;5.80;;;7.80;56.30;;;;;;4935938;28;20632;-89
2024/01/29 08:31:26;;;;;;;8.77;6.70;;;7.90;56.20;;;;;;4934219;28;20204;-91
2024/01/29 08:33:52;;;;;;;7.37;6.40;;;7.80;56.20;;;;;;4934295;29;20189;-89
2024/01/29 08:36:20;;;;;;;7.77;6.57;;;7.80;56.10;;;;;;4932824;29;20227;-91
2024/01/29 08:38:46;;;;;;;7.10;6.23;;;7.80;56.00;;;;;;4936141;29;20318;-93
2024/01/29 08:41:12;;;;;;;10.43;5.97;;;7.90;56.30;;;;;;4935582;28;20205;-90
2024/01/29 08:43:38;;;;;;;7.63;6.37;;;7.90;56.30;;;;;;4936172;29;20271;-91
2024/01/29 08:46:04;;;;;;;7.53;6.43;;;8.00;56.10;;;;;;4934220;29;20573;-89
2024/01/29 08:48:30;;;;;;;7.83;6.20;;;7.90;56.10;;;;;;4933856;29;20193;-91
2024/01/29 08:50:56;;;;;;;9.43;6.30;;;8.10;56.20;;;;;;4934651;28;20227;-91
2024/01/29 08:53:21;;;;;;;8.43;6.87;;;8.00;55.90;;;;;;4935103;29;20687;-92
2024/01/29 08:55:47;;;;;;;8.67;6.80;;;8.10;55.90;;;;;;4935530;29;20556;-90
2024/01/29 08:58:12;;;;;;;7.70;6.90;;;8.00;55.90;;;;;;4933767;29;20276;-90
2024/01/29 09:00:38;;;;;;;7.33;6.00;;;8.10;56.10;;;;;;4951021;28;20589;-89
2024/01/29 09:03:04;;;;;;;9.03;6.83;;;8.10;55.90;;;;;;4934131;29;20691;-91
2024/01/29 09:05:29;;;;;;;8.30;6.77;;;8.10;55.80;;;;;;4934910;29;20203;-88
2024/01/29 09:07:55;;;;;;;8.07;6.97;;;8.10;55.50;;;;;;4935908;29;20213;-88
2024/01/29 09:10:22;;;;;;;8.20;6.40;;;8.10;55.50;;;;;;4934733;29;20204;-90
2024/01/29 09:12:47;;;;;;;9.23;6.90;;;8.20;55.70;;;;;;4933286;28;20193;-91
2024/01/29 09:15:16;;;;;;;9.70;7.63;;;8.10;55.60;;;;;;4932805;29;20196;-89
2024/01/29 09:17:42;;;;;;;8.40;7.17;;;8.20;55.80;;;;;;4934094;29;20241;-89
2024/01/29 09:20:08;;;;;;;9.77;6.93;;;8.20;55.70;;;;;;4934988;29;20698;-91
2024/01/29 09:22:34;;;;;;;8.93;7.10;;;8.20;55.50;;;;;;4950750;29;20278;-88
2024/01/29 09:25:00;;;;;;;8.50;6.60;;;8.20;55.20;;;;;;4932051;28;20247;-89
2024/01/29 09:27:29;;;;;;;10.00;7.10;;;8.20;55.30;;;;;;4928932;29;20244;-91
2024/01/29 09:29:55;;;;;;;8.97;7.27;;;8.20;55.40;;;;;;4934667;29;20192;-90
2024/01/29 09:32:20;;;;;;;8.27;7.00;;;8.30;55.50;;;;;;4934200;29;20545;-89
2024/01/29 09:34:46;;;;;;;9.57;7.03;;;8.30;55.50;;;;;;4932148;29;20185;-91
2024/01/29 09:37:11;;;;;;;8.40;6.67;;;8.30;55.30;;;;;;4932722;29;20236;-90
2024/01/29 09:39:37;;;;;;;9.93;7.23;;;8.40;55.40;;;;;;4931345;29;20192;-92
2024/01/29 09:42:04;;;;;;;8.80;7.30;;;8.50;55.60;;;;;;4932061;29;20237;-91
2024/01/29 09:44:40;;;;;;;8.17;6.73;;;8.50;55.30;;;;;;4935033;29;20189;-92
2024/01/29 09:47:07;;;;;;;7.87;7.07;;;8.50;55.20;;;;;;4932691;28;20187;-92
2024/01/29 09:49:36;;;;;;;8.73;7.37;;;8.50;55.20;;;;;;4935158;29;20268;-91
2024/01/29 09:52:10;;;;;;;8.90;7.13;;;8.50;55.20;;;;;;4928576;28;20327;-88
2024/01/29 09:54:37;;;;;;;7.77;6.87;;;8.50;55.30;;;;;;4932973;28;20196;-91
2024/01/29 09:57:03;;;;;;;8.47;7.40;;;8.60;55.30;;;;;;4929000;28;20217;-89
2024/01/29 09:59:29;;;;;;;9.03;7.50;;;8.60;55.20;;;;;;4934240;28;20180;-91
2024/01/29 10:01:56;;;;;;;9.37;8.00;;;8.70;55.30;;;;;;4931902;29;20707;-90
2024/01/29 10:04:22;;;;;;;9.00;7.50;;;8.70;55.10;;;;;;4944297;28;21272;-89
2024/01/29 10:06:48;;;;;;;10.13;7.63;;;8.70;54.90;;;;;;4933079;29;20221;-88
2024/01/29 10:09:15;;;;;;;13.47;7.87;;;8.70;55.00;;;;;;4930626;29;20223;-91
2024/01/29 10:11:42;;;;;;;11.30;7.17;;;8.80;55.10;;;;;;4948842;28;20315;-92
2024/01/29 10:14:08;;;;;;;9.53;7.87;;;8.80;54.90;;;;;;4933100;29;20188;-88
2024/01/29 10:16:33;;;;;;;10.13;7.57;;;8.80;54.70;;;;;;4932345;29;20228;-92
2024/01/29 10:19:02;;;;;;;8.60;7.43;;;8.70;54.20;;;;;;4933974;29;20200;-91
2024/01/29 10:21:32;;;;;;;10.77;8.57;;;8.80;54.60;;;;;;4931712;29;20591;-89
2024/01/29 10:23:58;;;;;;;11.00;7.87;;;8.80;54.60;;;;;;4931890;29;20340;-88
2024/01/29 10:26:25;;;;;;;9.53;7.50;;;8.90;54.80;;;;;;4947307;28;20185;-89
2024/01/29 10:29:05;;;;;;;10.40;8.20;;;8.90;54.70;;;;;;4932669;28;20189;-88
2024/01/29 10:31:31;;;;;;;9.17;8.17;;;8.90;54.70;;;;;;4930727;29;20189;-89
2024/01/29 10:33:57;;;;;;;11.47;8.20;;;9.00;54.80;;;;;;4931291;29;20260;-89
2024/01/29 10:36:23;;;;;;;9.53;7.97;;;9.10;54.60;;;;;;4948130;28;20248;-90
2024/01/29 10:38:50;;;;;;;10.60;8.03;;;9.00;54.50;;;;;;4933649;28;20185;-89
2024/01/29 10:41:17;;;;;;;10.50;8.13;;;9.20;54.80;;;;;;4947979;28;20205;-92
2024/01/29 10:43:51;;;;;;;12.70;8.33;;;9.10;54.60;;;;;;4931458;28;20203;-91
2024/01/29 10:46:21;;;;;;;9.87;7.70;;;9.10;54.60;;;;;;4933991;28;20183;-92
2024/01/29 10:48:53;;;;;;;9.93;7.93;;;9.20;54.50;;;;;;4932636;28;20648;-88
2024/01/29 10:51:20;;;;;;;10.27;7.93;;;9.20;54.50;;;;;;4929098;28;20267;-91
2024/01/29 10:53:48;;;;;;;10.97;8.13;;;9.20;54.50;;;;;;4933419;28;20338;-89
2024/01/29 10:56:16;;;;;;;10.10;8.10;;;9.30;54.40;;;;;;4948281;28;20220;-92
2024/01/29 10:58:42;;;;;;;10.77;8.53;;;9.30;54.30;;;;;;4936339;28;20185;-87
2024/01/29 11:01:10;;;;;;;10.07;8.23;;;9.30;54.00;;;;;;4936764;28;20271;-89
2024/01/29 11:03:37;;;;;;;9.67;7.93;;;9.30;54.00;;;;;;4936836;28;20703;-90
2024/01/29 11:06:20;;;;;;;10.03;7.80;;;9.30;53.80;;;;;;4936593;28;20193;-90
2024/01/29 11:08:50;;;;;;;10.27;8.37;;;9.30;53.90;;;;;;4935811;29;20181;-88
2024/01/29 11:11:17;;;;;;;12.33;8.97;;;9.40;54.00;;;;;;4937837;28;20181;-88
2024/01/29 11:13:43;;;;;;;10.23;7.83;;;9.50;54.20;;;;;;4954086;28;20193;-92
2024/01/29 11:16:09;;;;;;;11.67;8.00;;;9.50;54.30;;;;;;4934876;28;20237;-89
2024/01/29 11:18:35;;;;;;;10.80;8.07;;;9.50;54.10;;;;;;4936285;28;20543;-89
2024/01/29 11:21:01;;;;;;;9.90;7.50;;;9.60;53.90;;;;;;4934592;28;20213;-91
2024/01/29 11:23:30;;;;;;;12.83;8.20;;;9.60;53.80;;;;;;4935226;28;20199;-92
2024/01/29 11:26:00;;;;;;;10.63;7.70;;;9.60;53.90;;;;;;4938203;29;20200;-91
2024/01/29 11:28:26;;;;;;;9.20;7.13;;;9.80;53.70;;;;;;4933292;28;20188;-88
2024/01/29 11:30:54;;;;;;;9.67;7.93;;;9.80;53.90;;;;;;4935363;29;20572;-89
2024/01/29 11:33:21;;;;;;;9.43;8.17;;;9.70;53.70;;;;;;4952442;28;20197;-88
2024/01/29 11:35:55;;;;;;;10.77;8.70;;;9.80;53.60;;;;;;4936850;28;20232;-91
2024/01/29 11:38:23;;;;;;;11.23;8.63;;;9.80;53.60;;;;;;4936783;28;20176;-89
2024/01/29 11:40:49;;;;;;;9.97;8.00;;;9.90;53.70;;;;;;4935921;28;20213;-92
2024/01/29 11:43:18;;;;;;;10.17;7.93;;;9.90;53.60;;;;;;4935082;29;20647;-88
2024/01/29 11:45:49;;;;;;;9.03;7.53;;;9.90;53.20;;;;;;4951650;28;20185;-89
2024/01/29 11:48:17;;;;;;;11.50;7.97;;;9.90;53.20;;;;;;4936104;28;20339;-89
2024/01/29 11:50:45;;;;;;;11.67;8.37;;;9.90;53.30;;;;;;4951250;28;20593;-90
2024/01/29 11:53:37;;;;;;;11.93;7.30;;;9.90;53.00;;;;;;4934099;29;20212;-91
2024/01/29 11:56:03;;;;;;;10.50;7.87;;;10.00;52.20;;;;;;4946183;28;20205;-88
2024/01/29 11:58:28;;;;;;;9.83;7.33;;;10.00;52.30;;;;;;4935395;28;20193;-91
2024/01/29 12:00:55;;;;;;;10.30;8.23;;;10.10;52.50;;;;;;4934718;29;20212;-90
2024/01/29 12:03:23;;;;;;;10.13;7.77;;;10.20;52.50;;;;;;4931480;29;20194;-89
2024/01/29 12:05:51;;;;;;;9.57;7.73;;;10.30;52.60;;;;;;4935401;29;20182;-91
2024/01/29 12:08:20;;;;;;;9.80;8.20;;;10.40;52.70;;;;;;4936778;28;20192;-90
2024/01/29 12:10:47;;;;;;;10.70;8.30;;;10.50;52.60;;;;;;4936248;29;20243;-92
2024/01/29 12:13:20;;;;;;;10.83;7.93;;;10.60;52.60;;;;;;4937776;28;20192;-90
2024/01/29 12:15:47;;;;;;;10.63;8.43;;;10.70;52.40;;;;;;4938368;29;20549;-89
2024/01/29 12:18:19;;;;;;;9.67;7.87;;;10.70;52.00;;;;;;4935074;29;20217;-90
2024/01/29 12:20:47;;;;;;;10.73;7.40;;;10.70;51.50;;;;;;4937543;29;20209;-89
2024/01/29 12:23:13;;;;;;;8.50;7.37;;;10.60;51.00;;;;;;4934598;29;20222;-91
2024/01/29 12:25:39;;;;;;;9.30;7.37;;;10.60;51.50;;;;;;4936052;29;20227;-92
2024/01/29 12:28:09;;;;;;;9.50;7.73;;;10.70;51.70;;;;;;4935258;29;20188;-92
2024/01/29 12:30:35;;;;;;;11.17;7.60;;;10.70;51.60;;;;;;4953016;29;20192;-92
2024/01/29 12:33:01;;;;;;;8.77;7.60;;;10.70;51.60;;;;;;4936071;29;20201;-90
2024/01/29 12:35:28;;;;;;;12.30;8.33;;;10.80;51.70;;;;;;4949866;28;20675;-89
2024/01/29 12:38:05;;;;;;;9.47;7.17;;;10.80;51.50;;;;;;4934286;29;20195;-89